createdAt,value
2022-09-09T00:00:42.625Z,5.57
2022-09-09T00:03:17.896Z,8.35
2022-09-09T00:05:56.661Z,9.60
2022-09-09T00:08:37.097Z,6.55
2022-09-09T00:11:07.670Z,7.43
2022-09-09T00:13:41.358Z,7.78
2022-09-09T00:16:17.261Z,6.53
2022-09-09T00:18:54.099Z,6.15
2022-09-09T00:21:40.706Z,6.53
2022-09-09T00:24:19.216Z,6.07
2022-09-09T00:27:16.499Z,7.47
2022-09-09T00:29:58.440Z,5.80
2022-09-09T00:32:31.396Z,7.38
2022-09-09T00:35:04.252Z,7.80
2022-09-09T00:37:41.843Z,7.50
2022-09-09T00:40:24.175Z,6.38
2022-09-09T00:43:06.133Z,6.57
2022-09-09T00:45:58.670Z,5.50
2022-09-09T00:48:36.939Z,5.90
2022-09-09T00:51:12.281Z,5.97
2022-09-09T00:53:59.402Z,3.75
2022-09-09T00:56:38.215Z,6.22
2022-09-09T00:59:19.263Z,3.67
2022-09-09T01:01:47.281Z,5.50
2022-09-09T01:04:21.413Z,7.22
2022-09-09T01:07:00.110Z,5.05
2022-09-09T01:09:50.298Z,3.47
2022-09-09T01:12:44.886Z,3.85
2022-09-09T01:15:19.631Z,4.88
2022-09-09T01:17:59.032Z,5.95
2022-09-09T01:20:33.391Z,3.50
2022-09-09T01:23:28.195Z,5.25
2022-09-09T01:26:18.235Z,2.70
2022-09-09T01:28:49.890Z,5.78
2022-09-09T01:31:31.623Z,3.83
2022-09-09T01:33:59.537Z,5.60
2022-09-09T01:36:34.573Z,4.70
2022-09-09T01:39:02.331Z,4.68
2022-09-09T01:41:39.367Z,4.95
2022-09-09T01:44:23.531Z,3.95
2022-09-09T01:46:51.427Z,3.97
2022-09-09T01:50:23.080Z,4.13
2022-09-09T01:53:13.852Z,5.03
2022-09-09T01:56:18.237Z,5.03
2022-09-09T01:59:43.648Z,5.70
2022-09-09T02:02:37.696Z,4.45
2022-09-09T02:05:31.023Z,4.85
2022-09-09T02:08:07.585Z,4.68
2022-09-09T02:10:57.260Z,4.13
2022-09-09T02:13:25.537Z,5.67
2022-09-09T02:16:05.862Z,4.88
2022-09-09T02:19:25.753Z,3.42
2022-09-09T02:21:56.472Z,4.40
2022-09-09T02:24:25.818Z,3.33
2022-09-09T02:26:56.732Z,4.07
2022-09-09T02:29:28.577Z,4.47
2022-09-09T02:32:07.088Z,4.97
2022-09-09T02:34:39.454Z,2.67
2022-09-09T02:37:36.004Z,7.05
2022-09-09T02:40:04.723Z,4.65
2022-09-09T02:42:46.579Z,5.88
2022-09-09T02:45:26.139Z,4.67
2022-09-09T02:48:39.312Z,3.92
2022-09-09T02:51:21.222Z,3.95
2022-09-09T02:54:29.926Z,3.80
2022-09-09T03:00:48.903Z,4.90
2022-09-09T03:03:18.871Z,4.68
2022-09-09T03:06:08.238Z,4.40
2022-09-09T03:08:39.756Z,3.10
2022-09-09T03:11:55.618Z,3.65
2022-09-09T03:14:26.139Z,5.10
2022-09-09T03:16:55.156Z,4.65
2022-09-09T03:19:50.626Z,4.85
2022-09-09T03:22:46.131Z,2.55
2022-09-09T03:25:27.540Z,4.97
2022-09-09T03:28:16.219Z,4.10
2022-09-09T03:30:44.114Z,6.75
2022-09-09T03:33:18.332Z,4.55
2022-09-09T03:35:49.687Z,4.47
2022-09-09T03:38:24.600Z,4.85
2022-09-09T03:40:56.127Z,3.57
2022-09-09T03:43:24.165Z,5.47
2022-09-09T03:45:52.487Z,3.42
2022-09-09T03:48:25.568Z,4.07
2022-09-09T03:50:56.918Z,4.70
2022-09-09T03:53:46.836Z,5.82
2022-09-09T03:56:15.557Z,5.55
2022-09-09T03:58:49.629Z,3.90
2022-09-09T04:01:19.303Z,4.20
2022-09-09T04:03:47.539Z,4.65
2022-09-09T04:06:17.892Z,4.00
2022-09-09T04:08:50.710Z,3.95
2022-09-09T04:11:18.924Z,3.63
2022-09-09T04:13:46.612Z,4.50
2022-09-09T04:16:17.694Z,6.60
2022-09-09T04:18:45.706Z,4.30
2022-09-09T04:21:14.194Z,5.18
2022-09-09T04:23:52.530Z,3.40
2022-09-09T04:26:23.540Z,5.45
2022-09-09T04:28:51.976Z,3.75
2022-09-09T04:31:25.406Z,4.55
2022-09-09T04:33:59.609Z,3.58
2022-09-09T04:36:30.975Z,5.53
2022-09-09T04:39:08.705Z,5.03
2022-09-09T04:42:16.940Z,3.50
2022-09-09T04:45:58.069Z,4.43
2022-09-09T04:48:36.235Z,3.55
2022-09-09T04:51:05.959Z,5.90
2022-09-09T04:53:35.817Z,3.93
2022-09-09T04:59:43.555Z,4.78
2022-09-09T05:02:11.279Z,5.20
2022-09-09T05:04:38.965Z,6.22
2022-09-09T05:07:07.638Z,5.53
2022-09-09T05:09:35.685Z,5.30
2022-09-09T05:12:07.155Z,6.38
2022-09-09T05:14:37.256Z,4.53
2022-09-09T05:17:09.858Z,5.15
2022-09-09T05:19:53.519Z,7.28
2022-09-09T05:22:22.352Z,7.20
2022-09-09T05:24:52.430Z,4.88
2022-09-09T05:27:21.679Z,6.50
2022-09-09T05:29:50.568Z,5.13
2022-09-09T05:32:18.399Z,7.28
2022-09-09T05:34:46.136Z,6.35
2022-09-09T05:37:13.810Z,6.63
2022-09-09T05:39:41.793Z,3.72
2022-09-09T05:42:09.734Z,6.55
2022-09-09T05:44:39.261Z,6.40
2022-09-09T05:47:08.972Z,4.63
2022-09-09T05:49:39.269Z,5.07
2022-09-09T05:52:07.599Z,8.35
2022-09-09T05:54:35.316Z,5.95
2022-09-09T05:57:02.963Z,7.80
2022-09-09T05:59:30.728Z,8.63
2022-09-09T06:02:00.177Z,8.60
2022-09-09T06:04:28.002Z,6.88
2022-09-09T06:06:55.720Z,6.05
2022-09-09T06:09:32.479Z,7.25
2022-09-09T06:12:00.187Z,6.30
2022-09-09T06:14:28.257Z,7.30
2022-09-09T06:16:56.165Z,5.78
2022-09-09T06:19:27.769Z,7.75
2022-09-09T06:21:55.804Z,6.95
2022-09-09T06:24:23.432Z,7.53
2022-09-09T06:26:53.030Z,5.80
2022-09-09T06:29:20.836Z,6.40
2022-09-09T06:31:48.674Z,6.30
2022-09-09T06:34:16.530Z,6.10
2022-09-09T06:36:47.155Z,7.25
2022-09-09T06:39:16.376Z,6.80
2022-09-09T06:41:44.584Z,6.18
2022-09-09T06:44:13.642Z,6.93
2022-09-09T06:46:41.744Z,4.45
2022-09-09T06:49:10.056Z,6.25
2022-09-09T06:51:43.854Z,8.77
2022-09-09T06:54:14.020Z,8.43
2022-09-09T06:56:44.278Z,7.65
2022-09-09T06:59:13.413Z,7.47
2022-09-09T07:01:42.778Z,5.53
2022-09-09T07:04:11.925Z,8.57
2022-09-09T07:06:41.789Z,7.50
2022-09-09T07:09:11.907Z,7.13
2022-09-09T07:11:43.354Z,7.47
2022-09-09T07:14:13.815Z,6.93
2022-09-09T07:16:41.662Z,6.95
2022-09-09T07:19:10.420Z,9.20
2022-09-09T07:21:38.140Z,6.57
2022-09-09T07:24:08.313Z,7.18
2022-09-09T07:26:39.354Z,6.68
2022-09-09T07:29:20.605Z,7.15
2022-09-09T07:31:49.357Z,5.78
2022-09-09T07:34:17.369Z,7.07
2022-09-09T07:36:45.182Z,5.80
2022-09-09T07:39:15.364Z,6.27
2022-09-09T07:41:44.465Z,9.18
2022-09-09T07:44:18.646Z,6.85
2022-09-09T07:46:47.154Z,8.75
2022-09-09T07:49:15.623Z,6.07
2022-09-09T07:51:47.888Z,10.52
2022-09-09T07:54:20.943Z,4.90
2022-09-09T07:56:50.328Z,7.13
2022-09-09T08:02:16.848Z,5.85
2022-09-09T08:04:44.601Z,7.97
2022-09-09T08:07:13.062Z,6.28
2022-09-09T08:09:45.436Z,5.67
2022-09-09T08:12:22.524Z,6.10
2022-09-09T08:15:23.797Z,7.85
2022-09-09T08:17:51.460Z,7.78
2022-09-09T08:20:19.241Z,7.75
2022-09-09T08:22:47.094Z,5.72
2022-09-09T08:25:14.856Z,8.43
2022-09-09T08:27:43.075Z,5.10
2022-09-09T08:30:14.023Z,4.87
2022-09-09T08:32:44.856Z,4.68
2022-09-09T08:35:17.194Z,5.75
2022-09-09T08:37:44.979Z,5.00
2022-09-09T08:40:23.670Z,7.40
2022-09-09T08:42:54.854Z,5.57
2022-09-09T08:45:37.567Z,5.22
2022-09-09T08:48:29.156Z,6.13
2022-09-09T08:51:02.959Z,6.50
2022-09-09T08:53:40.592Z,4.78
2022-09-09T08:56:16.296Z,6.32
2022-09-09T08:58:51.538Z,4.68
2022-09-09T09:01:45.431Z,5.43
2022-09-09T09:07:41.224Z,7.15
2022-09-09T09:11:10.538Z,8.48
2022-09-09T09:13:47.238Z,6.22
2022-09-09T09:16:28.181Z,6.75
2022-09-09T09:19:15.310Z,6.07
2022-09-09T09:21:45.879Z,4.80
2022-09-09T09:24:34.244Z,6.00
2022-09-09T09:30:29.941Z,6.97
2022-09-09T09:33:02.358Z,5.85
2022-09-09T09:35:44.843Z,6.63
2022-09-09T09:41:40.751Z,7.25
2022-09-09T09:44:26.224Z,7.07
2022-09-09T09:47:04.278Z,4.23
2022-09-09T09:49:37.314Z,6.72
2022-09-09T09:52:40.688Z,8.35
2022-09-09T09:59:18.046Z,7.03
2022-09-09T10:02:17.168Z,6.78
2022-09-09T10:04:46.414Z,7.23
2022-09-09T10:07:41.988Z,5.20
2022-09-09T10:10:20.139Z,5.22
2022-09-09T10:13:00.750Z,5.82
2022-09-09T10:15:44.593Z,5.05
2022-09-09T10:19:03.302Z,5.57
2022-09-09T10:22:15.272Z,6.20
2022-09-09T10:25:51.556Z,5.72
2022-09-09T10:28:51.046Z,5.10
2022-09-09T10:31:33.011Z,6.85
2022-09-09T10:34:14.451Z,4.27
2022-09-09T10:36:50.109Z,4.63
2022-09-09T10:39:33.604Z,4.50
2022-09-09T10:42:09.279Z,7.15
2022-09-09T10:45:03.188Z,4.57
2022-09-09T10:47:59.270Z,4.30
2022-09-09T10:51:00.509Z,5.30
2022-09-09T10:53:47.740Z,5.20
2022-09-09T10:56:39.227Z,4.97
2022-09-09T10:59:13.362Z,5.70
2022-09-09T11:01:54.989Z,4.68
2022-09-09T11:04:26.237Z,5.18
2022-09-09T11:07:08.466Z,5.03
2022-09-09T11:09:45.274Z,4.78
2022-09-09T11:12:23.202Z,6.90
2022-09-09T11:19:23.843Z,3.30
2022-09-09T11:22:19.904Z,6.22
2022-09-09T11:42:22.910Z,7.05
2022-09-09T11:49:19.137Z,4.53
2022-09-09T12:39:18.104Z,3.88
2022-09-09T12:42:32.799Z,2.30
2022-09-09T15:16:50.341Z,2.15
2022-09-09T15:19:18.904Z,1.67
2022-09-09T15:21:46.687Z,2.80
2022-09-09T15:24:14.779Z,1.50
2022-09-09T15:26:42.735Z,1.98
2022-09-09T15:29:11.356Z,0.73
2022-09-09T15:31:39.329Z,2.10
2022-09-09T15:34:09.434Z,2.67
2022-09-09T15:36:38.793Z,4.40
2022-09-09T15:39:10.753Z,2.10
2022-09-09T15:41:38.831Z,1.00
2022-09-09T15:44:06.679Z,1.42
2022-09-09T15:46:41.840Z,3.80
2022-09-09T15:49:27.553Z,3.45
2022-09-09T15:52:12.679Z,2.00
2022-09-09T15:54:41.123Z,4.13
2022-09-09T15:57:16.668Z,3.30
2022-09-09T15:59:46.459Z,3.47
2022-09-09T16:02:14.361Z,3.70
2022-09-09T16:04:45.911Z,2.83
2022-09-09T16:07:14.490Z,2.90
2022-09-09T16:09:44.337Z,2.42
2022-09-09T16:12:13.872Z,1.23
2022-09-09T16:14:42.292Z,2.60
2022-09-09T16:17:24.208Z,2.72
2022-09-09T16:19:58.810Z,2.90
2022-09-09T16:22:54.369Z,3.92
2022-09-09T16:25:23.006Z,2.90
2022-09-09T16:27:50.931Z,1.95
2022-09-09T16:30:21.235Z,3.28
2022-09-09T16:32:50.439Z,3.70
2022-09-09T16:38:05.182Z,4.20
2022-09-09T16:40:35.981Z,1.50
2022-09-09T16:43:03.856Z,3.10
2022-09-09T16:45:37.222Z,3.22
2022-09-09T16:48:05.278Z,4.82
2022-09-09T16:50:36.623Z,2.70
2022-09-09T16:53:09.821Z,2.63
2022-09-09T16:55:53.062Z,3.85
2022-09-09T16:58:24.285Z,1.25
2022-09-09T17:01:12.676Z,3.20
2022-09-09T17:03:50.858Z,3.55
2022-09-09T17:06:22.452Z,4.38
2022-09-09T17:09:14.102Z,3.25
2022-09-09T17:11:42.439Z,4.95
2022-09-09T17:14:16.501Z,2.47
2022-09-09T17:16:50.992Z,2.63
2022-09-09T17:19:19.991Z,0.63
2022-09-09T17:22:14.763Z,2.38
2022-09-09T17:24:39.860Z,1.27
2022-09-09T17:27:08.020Z,0.47
2022-09-09T17:29:37.072Z,2.80
2022-09-09T17:32:09.936Z,4.47
2022-09-09T17:34:38.894Z,2.35
2022-09-09T17:37:11.691Z,6.25
2022-09-09T17:39:44.835Z,2.67
2022-09-09T17:42:12.732Z,2.15
2022-09-09T17:44:41.117Z,2.78
2022-09-09T17:52:32.066Z,1.35
2022-09-09T17:55:00.878Z,2.63
2022-09-09T18:01:04.257Z,4.45
2022-09-09T18:03:38.832Z,2.33
2022-09-09T18:06:09.182Z,3.85
2022-09-09T18:08:38.409Z,2.47
2022-09-09T18:11:06.801Z,3.58
2022-09-09T18:13:35.239Z,1.67
2022-09-09T18:16:05.222Z,2.95
2022-09-09T18:18:33.052Z,2.65
2022-09-09T18:21:01.812Z,3.63
2022-09-09T18:23:31.474Z,3.83
2022-09-09T18:26:07.883Z,3.50
2022-09-09T18:28:36.222Z,2.28
2022-09-09T18:31:07.230Z,3.27
2022-09-09T18:33:37.684Z,3.22
2022-09-09T18:36:08.120Z,3.22
2022-09-09T18:38:59.851Z,4.20
2022-09-09T18:41:39.430Z,2.30
2022-09-09T18:44:15.733Z,2.83
2022-09-09T18:46:45.128Z,3.67
2022-09-09T18:49:18.266Z,5.10
2022-09-09T18:51:46.948Z,3.25
2022-09-09T18:54:17.448Z,3.25
2022-09-09T18:56:48.667Z,4.55
2022-09-09T18:59:33.709Z,4.22
2022-09-09T19:02:02.042Z,4.35
2022-09-09T19:04:29.939Z,1.88
2022-09-09T19:06:58.777Z,2.45
2022-09-09T19:09:29.523Z,2.92
2022-09-09T20:08:48.368Z,3.80
2022-09-09T21:22:46.064Z,4.38
2022-09-09T21:25:53.194Z,2.70
2022-09-09T21:28:36.840Z,2.90
2022-09-09T21:31:15.370Z,3.05
2022-09-09T21:33:47.715Z,2.55
2022-09-09T21:36:24.377Z,5.47
2022-09-09T21:39:06.455Z,5.78
2022-09-09T21:41:37.541Z,4.60
2022-09-09T21:44:05.719Z,2.88
2022-09-09T21:47:20.888Z,4.75
2022-09-09T21:49:48.930Z,4.75
2022-09-09T21:52:20.365Z,4.88
2022-09-09T21:54:49.693Z,4.13
2022-09-09T21:57:21.736Z,4.85
2022-09-09T22:00:02.911Z,3.55
2022-09-09T22:02:34.471Z,4.40
2022-09-09T22:08:44.975Z,2.70
2022-09-09T22:12:24.143Z,4.45
2022-09-09T22:14:54.335Z,4.28
2022-09-09T22:17:24.433Z,2.70
2022-09-09T22:19:54.305Z,3.70
2022-09-09T22:22:22.937Z,3.92
2022-09-09T22:24:57.187Z,3.40
2022-09-09T22:27:28.128Z,3.97
2022-09-09T22:30:04.150Z,4.55
2022-09-09T22:32:41.781Z,2.33
2022-09-09T22:35:13.534Z,4.20
2022-09-09T22:37:50.957Z,3.20
2022-09-09T22:40:23.463Z,3.75
2022-09-09T22:42:52.908Z,3.53
2022-09-09T22:45:30.398Z,4.22
2022-09-09T22:48:06.668Z,3.05
2022-09-09T22:50:42.502Z,4.45
2022-09-09T22:56:15.337Z,5.45
2022-09-09T22:58:43.338Z,3.80
2022-09-09T23:01:19.977Z,3.90
2022-09-09T23:04:02.982Z,4.87
2022-09-09T23:06:34.695Z,4.00
2022-09-09T23:09:06.765Z,3.28
2022-09-09T23:12:19.222Z,3.00
2022-09-09T23:15:10.149Z,2.33
2022-09-09T23:18:12.394Z,2.63
2022-09-09T23:20:40.535Z,2.58
2022-09-09T23:23:13.752Z,3.53
2022-09-09T23:26:33.754Z,3.55
2022-09-09T23:29:42.645Z,2.97
2022-09-09T23:32:52.763Z,3.00
2022-09-09T23:36:48.330Z,2.95
2022-09-09T23:40:08.594Z,4.32
2022-09-09T23:43:32.646Z,3.58
2022-09-09T23:46:55.513Z,2.97
2022-09-09T23:50:45.824Z,4.53
2022-09-09T23:57:35.659Z,4.10
